Time;durP1;ratioP1;P1;durP2;ratioP2;P2;SDS_P1;SDS_P2;PMS_P1;PMS_P2;Temp;Humidity;BMP_temperature;BMP_pressure;BME280_temperature;BME280_humidity;BME280_pressure;Samples;Min_cycle;Max_cycle;Signal;HPM_P1;HPM_P2
2022/03/07 00:02:11;;;;;;;33.47;6.38;;;1.30;99.90;;;;;;5042963;28;20056;-73
2022/03/07 00:04:37;;;;;;;14.73;6.13;;;1.30;99.90;;;;;;5039770;28;20045;-73
2022/03/07 00:07:03;;;;;;;13.93;5.63;;;1.30;99.90;;;;;;5024811;28;20025;-70
2022/03/07 00:09:29;;;;;;;14.32;5.90;;;1.30;99.90;;;;;;5024998;28;20036;-71
2022/03/07 00:11:56;;;;;;;23.60;6.50;;;1.30;99.90;;;;;;5024751;28;20536;-73
2022/03/07 00:14:22;;;;;;;19.10;6.45;;;1.20;99.90;;;;;;5024860;28;20041;-72
2022/03/07 00:16:48;;;;;;;19.50;5.88;;;1.20;99.90;;;;;;5023989;28;20497;-72
2022/03/07 00:19:14;;;;;;;21.17;7.35;;;1.20;99.90;;;;;;5025004;28;20029;-72
2022/03/07 00:21:40;;;;;;;15.13;5.78;;;1.20;99.90;;;;;;5024656;28;20085;-71
2022/03/07 00:24:07;;;;;;;14.93;7.03;;;1.20;99.90;;;;;;5024741;28;20072;-71
2022/03/07 00:26:33;;;;;;;18.50;7.05;;;1.20;99.90;;;;;;5024520;28;20026;-71
2022/03/07 00:28:59;;;;;;;18.60;6.28;;;1.20;99.90;;;;;;5006912;28;20021;-74
2022/03/07 00:31:24;;;;;;;19.92;7.97;;;1.20;99.90;;;;;;5025158;28;20072;-71
2022/03/07 00:33:51;;;;;;;17.50;6.65;;;1.20;99.90;;;;;;5024619;28;20033;-74
2022/03/07 00:36:19;;;;;;;22.48;7.78;;;1.20;99.90;;;;;;5024843;28;20057;-72
2022/03/07 00:38:46;;;;;;;18.77;6.93;;;1.20;99.90;;;;;;5024894;28;20062;-72
2022/03/07 00:41:12;;;;;;;18.75;7.10;;;1.20;99.90;;;;;;5038451;28;20030;-72
2022/03/07 00:43:39;;;;;;;16.40;6.63;;;1.20;99.90;;;;;;5026562;28;20133;-73
2022/03/07 00:46:05;;;;;;;22.48;7.43;;;1.30;99.90;;;;;;5044609;28;20025;-71
2022/03/07 00:48:31;;;;;;;18.08;6.93;;;1.30;99.90;;;;;;5047589;28;20017;-72
2022/03/07 00:50:57;;;;;;;21.63;7.70;;;1.30;99.90;;;;;;5050774;28;20033;-72
2022/03/07 00:53:26;;;;;;;19.02;6.85;;;1.40;99.90;;;;;;5050842;28;20128;-72
2022/03/07 00:55:53;;;;;;;21.45;7.07;;;1.30;99.90;;;;;;5032831;28;20033;-72
2022/03/07 00:58:20;;;;;;;22.67;6.55;;;1.30;99.90;;;;;;5051071;28;20022;-75
2022/03/07 01:00:46;;;;;;;12.88;5.65;;;1.30;99.90;;;;;;5051038;28;20094;-72
2022/03/07 01:03:13;;;;;;;18.17;6.75;;;1.30;99.90;;;;;;5050341;28;20881;-71
2022/03/07 01:05:40;;;;;;;13.85;7.13;;;1.30;99.90;;;;;;5050935;28;20030;-73
2022/03/07 01:08:11;;;;;;;27.35;8.50;;;1.30;99.90;;;;;;5033025;28;20374;-73
2022/03/07 01:10:37;;;;;;;29.50;7.32;;;1.30;99.90;;;;;;5050543;28;20052;-74
2022/03/07 01:13:04;;;;;;;17.60;7.32;;;1.30;99.90;;;;;;5050843;28;20044;-72
2022/03/07 01:15:30;;;;;;;17.35;6.55;;;1.30;99.90;;;;;;5050489;28;20025;-71
2022/03/07 01:17:59;;;;;;;11.57;5.70;;;1.30;99.90;;;;;;5050372;28;20053;-72
2022/03/07 01:20:25;;;;;;;16.73;7.15;;;1.20;99.90;;;;;;5050784;28;20477;-73
2022/03/07 01:22:51;;;;;;;19.77;6.70;;;1.20;99.90;;;;;;5050578;28;20046;-73
2022/03/07 01:25:16;;;;;;;17.10;6.90;;;1.20;99.90;;;;;;5050587;28;20362;-71
2022/03/07 01:27:42;;;;;;;15.88;7.15;;;1.20;99.90;;;;;;5050921;28;20722;-74
2022/03/07 01:30:08;;;;;;;24.48;7.68;;;1.20;99.90;;;;;;5050437;28;20022;-71
2022/03/07 01:32:34;;;;;;;14.80;5.90;;;1.20;99.90;;;;;;5050637;28;20037;-72
2022/03/07 01:35:00;;;;;;;18.25;6.95;;;1.10;99.90;;;;;;5050680;28;20029;-72
2022/03/07 01:37:26;;;;;;;11.15;6.63;;;1.20;99.90;;;;;;5049375;28;20052;-72
2022/03/07 01:39:52;;;;;;;16.33;6.65;;;1.10;99.90;;;;;;5050537;28;20091;-73
2022/03/07 01:42:18;;;;;;;19.75;7.22;;;1.10;99.90;;;;;;5051028;28;20038;-73
2022/03/07 01:44:44;;;;;;;20.73;8.02;;;1.10;99.90;;;;;;5050351;28;20132;-72
2022/03/07 01:47:09;;;;;;;20.95;7.57;;;1.10;99.90;;;;;;5049548;28;20048;-73
2022/03/07 01:49:35;;;;;;;18.40;6.55;;;1.00;99.90;;;;;;5032631;28;20112;-72
2022/03/07 01:52:01;;;;;;;15.85;6.10;;;1.00;99.90;;;;;;5032119;28;20472;-74
2022/03/07 01:54:27;;;;;;;17.25;6.65;;;1.00;99.90;;;;;;5028791;28;20045;-73
2022/03/07 02:00:39;;;;;;;22.17;7.38;;;0.90;99.90;;;;;;5021644;28;20169;-73
2022/03/07 02:03:05;;;;;;;12.05;5.68;;;0.80;99.90;;;;;;5025556;28;20101;-72
2022/03/07 02:05:32;;;;;;;14.93;6.88;;;0.80;99.90;;;;;;5027092;28;20386;-72
2022/03/07 02:07:58;;;;;;;14.32;6.20;;;0.70;99.90;;;;;;5027375;28;20030;-74
2022/03/07 02:10:28;;;;;;;19.10;6.32;;;0.70;99.90;;;;;;5027462;28;20060;-71
2022/03/07 02:12:55;;;;;;;15.98;5.97;;;0.70;99.90;;;;;;5027020;28;20044;-73
2022/03/07 02:15:21;;;;;;;17.70;5.93;;;0.70;99.90;;;;;;5025244;28;20029;-72
2022/03/07 02:17:47;;;;;;;20.67;7.22;;;0.80;99.90;;;;;;5027261;28;20030;-72
2022/03/07 02:20:13;;;;;;;17.02;5.65;;;0.80;99.90;;;;;;5026881;28;20026;-71
2022/03/07 02:22:38;;;;;;;16.90;6.78;;;0.80;99.90;;;;;;5026653;28;20088;-72
2022/03/07 02:25:05;;;;;;;15.25;5.88;;;0.80;99.90;;;;;;5026822;28;20033;-70
2022/03/07 02:27:33;;;;;;;14.18;5.75;;;0.80;99.90;;;;;;5026940;28;20117;-73
2022/03/07 02:30:05;;;;;;;13.88;5.63;;;0.80;99.90;;;;;;5026866;28;20026;-74
2022/03/07 02:32:31;;;;;;;15.63;6.32;;;0.90;99.90;;;;;;5026955;28;20462;-72
2022/03/07 02:34:58;;;;;;;15.02;5.78;;;0.90;99.90;;;;;;5026721;28;20033;-73
2022/03/07 02:37:24;;;;;;;16.77;5.63;;;0.90;99.90;;;;;;5027068;28;20109;-71
2022/03/07 02:39:49;;;;;;;18.02;6.50;;;0.90;99.90;;;;;;5026850;28;20034;-71
2022/03/07 02:42:15;;;;;;;19.67;7.43;;;0.90;99.90;;;;;;5026250;28;20033;-75
2022/03/07 02:44:41;;;;;;;10.23;5.07;;;0.90;99.90;;;;;;5026660;28;20030;-73
2022/03/07 02:47:06;;;;;;;16.10;6.30;;;0.90;99.90;;;;;;5026439;28;20034;-70
2022/03/07 02:49:32;;;;;;;28.20;6.75;;;0.90;99.90;;;;;;5026075;28;20038;-71
2022/03/07 02:51:58;;;;;;;22.50;6.93;;;1.00;99.90;;;;;;5026515;28;20037;-71
2022/03/07 02:54:28;;;;;;;16.05;6.15;;;1.00;99.90;;;;;;5045426;28;20057;-71
2022/03/07 02:56:55;;;;;;;22.25;6.75;;;1.00;99.90;;;;;;5046154;28;20087;-71
2022/03/07 02:59:20;;;;;;;27.52;6.28;;;1.00;99.90;;;;;;5028609;28;20038;-71
2022/03/07 03:01:47;;;;;;;16.02;5.32;;;1.10;99.90;;;;;;5045649;28;20035;-71
2022/03/07 03:04:12;;;;;;;14.48;5.13;;;1.10;99.90;;;;;;5045859;28;20073;-71
2022/03/07 03:06:38;;;;;;;12.27;6.03;;;1.10;99.90;;;;;;5046160;28;20030;-71
2022/03/07 03:09:05;;;;;;;17.15;6.47;;;1.10;99.90;;;;;;5045561;28;20077;-71
2022/03/07 03:11:32;;;;;;;33.95;7.28;;;1.10;99.90;;;;;;5027945;28;20021;-71
2022/03/07 03:13:59;;;;;;;14.52;6.72;;;1.10;99.90;;;;;;5046069;28;20049;-72
2022/03/07 03:16:26;;;;;;;26.13;5.80;;;1.20;99.90;;;;;;5027707;28;20025;-72
2022/03/07 03:18:51;;;;;;;25.17;5.50;;;1.10;99.90;;;;;;5045992;28;20029;-71
2022/03/07 03:21:20;;;;;;;15.38;5.85;;;1.10;99.90;;;;;;5045623;28;20083;-71
2022/03/07 03:23:47;;;;;;;12.38;5.53;;;1.00;99.90;;;;;;5027293;28;20045;-72
2022/03/07 03:26:13;;;;;;;13.07;5.18;;;1.10;99.90;;;;;;5045748;28;20029;-72
2022/03/07 03:28:39;;;;;;;15.52;4.90;;;1.10;99.90;;;;;;5045572;28;20033;-70
2022/03/07 03:31:06;;;;;;;21.30;5.70;;;1.00;99.90;;;;;;5027294;28;20030;-71
2022/03/07 03:33:32;;;;;;;26.10;5.50;;;1.00;99.90;;;;;;5027617;28;20497;-73
2022/03/07 03:35:57;;;;;;;31.17;5.22;;;1.00;99.90;;;;;;5027531;28;20037;-72
2022/03/07 03:38:23;;;;;;;20.20;4.60;;;1.00;99.90;;;;;;5045416;28;20081;-70
2022/03/07 03:40:49;;;;;;;18.08;5.03;;;0.90;99.90;;;;;;5027550;28;20025;-72
2022/03/07 03:43:14;;;;;;;23.45;5.25;;;0.90;99.90;;;;;;5045146;28;20044;-73
2022/03/07 03:45:40;;;;;;;17.08;5.05;;;0.90;99.90;;;;;;5026978;28;20021;-71
2022/03/07 03:48:05;;;;;;;11.35;4.20;;;0.90;99.90;;;;;;5027373;28;20031;-73
2022/03/07 03:50:31;;;;;;;24.58;4.15;;;0.80;99.90;;;;;;5044689;28;20025;-73
2022/03/07 03:52:57;;;;;;;12.50;4.20;;;0.80;99.90;;;;;;5044803;28;20050;-72
2022/03/07 03:55:22;;;;;;;9.73;3.90;;;0.80;99.90;;;;;;5045299;28;20079;-72
2022/03/07 03:57:48;;;;;;;11.20;4.18;;;0.70;99.90;;;;;;5044759;28;20073;-72
2022/03/07 04:00:16;;;;;;;8.85;3.60;;;0.70;99.90;;;;;;5026512;28;20030;-74
2022/03/07 04:02:42;;;;;;;9.35;3.58;;;0.70;99.90;;;;;;5044672;28;20042;-69
2022/03/07 04:05:12;;;;;;;9.13;3.47;;;0.70;99.90;;;;;;5044505;28;20057;-74
2022/03/07 04:07:38;;;;;;;10.45;3.78;;;0.70;99.90;;;;;;5044933;28;20029;-72
2022/03/07 04:10:05;;;;;;;9.35;3.50;;;0.70;99.90;;;;;;5044680;28;20052;-71
2022/03/07 04:12:30;;;;;;;8.05;3.78;;;0.70;99.90;;;;;;5044441;28;20092;-73
2022/03/07 04:14:56;;;;;;;15.70;4.20;;;0.70;99.90;;;;;;5044932;28;20033;-72
2022/03/07 04:17:22;;;;;;;9.68;3.08;;;0.70;99.90;;;;;;5044884;28;20057;-72
2022/03/07 04:19:48;;;;;;;12.25;3.80;;;0.60;99.90;;;;;;5044427;28;20065;-71
2022/03/07 04:22:13;;;;;;;9.95;4.45;;;0.70;99.90;;;;;;5044262;28;20036;-73
2022/03/07 04:24:39;;;;;;;15.40;5.93;;;0.70;99.90;;;;;;5026518;28;20030;-72
2022/03/07 04:27:05;;;;;;;18.83;7.45;;;0.60;99.90;;;;;;5044283;28;20032;-72
2022/03/07 04:29:31;;;;;;;13.55;5.45;;;0.60;99.90;;;;;;5044801;28;20026;-72
2022/03/07 04:31:56;;;;;;;25.58;7.88;;;0.60;99.90;;;;;;5045163;28;20036;-70
2022/03/07 04:34:22;;;;;;;13.20;6.22;;;0.60;99.90;;;;;;5044742;28;20105;-71
2022/03/07 04:36:48;;;;;;;28.20;6.75;;;0.50;99.90;;;;;;5044581;28;20033;-72
2022/03/07 04:39:13;;;;;;;35.00;7.13;;;0.50;99.90;;;;;;5044347;28;20037;-72
2022/03/07 04:41:40;;;;;;;30.67;6.32;;;0.50;99.90;;;;;;5026350;28;20029;-71
2022/03/07 04:44:06;;;;;;;25.20;6.50;;;0.40;99.90;;;;;;5044388;28;20097;-70
2022/03/07 04:46:32;;;;;;;16.15;6.25;;;0.40;99.90;;;;;;5044375;28;20039;-71
2022/03/07 04:48:58;;;;;;;12.55;5.93;;;0.40;99.90;;;;;;5044168;28;20073;-71
2022/03/07 04:51:24;;;;;;;59.08;10.05;;;0.40;99.90;;;;;;5026654;28;20045;-71
2022/03/07 04:53:51;;;;;;;33.25;5.75;;;0.40;99.90;;;;;;5044260;28;20397;-71
2022/03/07 04:56:20;;;;;;;25.45;8.73;;;0.40;99.90;;;;;;5044220;28;20457;-69
2022/03/07 04:58:46;;;;;;;39.85;9.07;;;0.40;99.90;;;;;;5044422;28;20025;-71
2022/03/07 05:01:14;;;;;;;51.22;10.48;;;0.40;99.90;;;;;;5043631;28;20036;-70
2022/03/07 05:03:40;;;;;;;35.58;10.27;;;0.40;99.90;;;;;;5043782;28;20093;-71
2022/03/07 05:06:06;;;;;;;28.15;9.07;;;0.40;99.90;;;;;;5044335;28;20028;-71
2022/03/07 05:08:32;;;;;;;72.13;11.15;;;0.40;99.90;;;;;;5044208;28;20025;-71
2022/03/07 05:10:58;;;;;;;19.30;6.40;;;0.40;99.90;;;;;;5043889;28;20026;-71
2022/03/07 05:13:25;;;;;;;70.45;11.95;;;0.40;99.90;;;;;;5043232;28;20473;-72
2022/03/07 05:15:51;;;;;;;128.57;13.25;;;0.30;99.90;;;;;;5043925;28;20040;-70
2022/03/07 05:18:16;;;;;;;64.35;11.38;;;0.30;99.90;;;;;;5043806;28;20026;-71
2022/03/07 05:20:42;;;;;;;53.90;10.88;;;0.30;99.90;;;;;;5044002;28;20032;-71
2022/03/07 05:23:08;;;;;;;125.57;9.63;;;0.30;99.90;;;;;;5043599;28;20064;-70
2022/03/07 05:25:33;;;;;;;76.72;9.85;;;0.30;99.90;;;;;;5044210;28;20075;-69
2022/03/07 05:27:59;;;;;;;24.65;5.47;;;0.30;99.90;;;;;;5026608;28;20116;-70
2022/03/07 05:30:25;;;;;;;41.40;7.47;;;0.20;99.90;;;;;;5043855;28;20022;-71
2022/03/07 05:32:53;;;;;;;46.88;9.18;;;0.10;99.90;;;;;;5044160;28;20064;-70
2022/03/07 05:35:21;;;;;;;32.33;8.52;;;0.00;99.90;;;;;;5045308;28;20048;-70
2022/03/07 05:37:46;;;;;;;32.00;5.72;;;0.00;99.90;;;;;;5047372;28;20068;-72
2022/03/07 05:40:13;;;;;;;46.22;7.45;;;0.00;99.90;;;;;;5040050;28;20046;-70
2022/03/07 05:42:39;;;;;;;14.38;5.70;;;0.00;99.90;;;;;;5040739;28;20052;-70
2022/03/07 05:45:08;;;;;;;22.75;5.63;;;-0.10;99.90;;;;;;5042010;28;20038;-70
2022/03/07 05:47:33;;;;;;;60.45;8.35;;;-0.10;99.90;;;;;;5039148;28;20473;-69
2022/03/07 05:50:00;;;;;;;34.25;7.10;;;-0.20;99.90;;;;;;5027760;28;20049;-73
2022/03/07 05:52:27;;;;;;;28.40;8.50;;;-0.20;99.90;;;;;;5018432;28;20053;-73
2022/03/07 05:54:54;;;;;;;15.50;4.50;;;-0.20;99.90;;;;;;5044070;28;20029;-70
2022/03/07 05:57:19;;;;;;;46.22;4.80;;;-0.20;99.90;;;;;;5045514;28;20503;-70
2022/03/07 05:59:45;;;;;;;17.52;4.90;;;-0.20;99.90;;;;;;5046301;28;20033;-70
2022/03/07 06:02:10;;;;;;;14.88;6.68;;;-0.20;99.90;;;;;;5046467;28;20026;-70
2022/03/07 06:04:36;;;;;;;22.75;5.25;;;-0.20;99.90;;;;;;5046775;28;20025;-70
2022/03/07 06:07:02;;;;;;;50.85;6.30;;;-0.20;99.90;;;;;;5046841;28;20072;-71
2022/03/07 06:09:29;;;;;;;18.38;7.50;;;-0.20;99.90;;;;;;5047045;28;20033;-70
2022/03/07 06:11:55;;;;;;;18.45;6.72;;;-0.20;99.90;;;;;;5047229;28;20082;-71
2022/03/07 06:14:21;;;;;;;12.35;4.35;;;-0.30;99.90;;;;;;5046657;28;20462;-69
2022/03/07 06:16:46;;;;;;;13.98;5.22;;;-0.40;99.90;;;;;;5028555;28;20085;-69
2022/03/07 06:19:12;;;;;;;13.20;4.55;;;-0.40;99.90;;;;;;5044529;28;20088;-71
2022/03/07 06:21:38;;;;;;;20.77;6.03;;;-0.40;99.90;;;;;;5044035;28;20057;-69
2022/03/07 06:24:05;;;;;;;40.10;7.68;;;-0.30;99.90;;;;;;5046508;28;20073;-70
2022/03/07 06:26:31;;;;;;;35.78;5.40;;;-0.30;99.90;;;;;;5045982;28;20061;-71
2022/03/07 06:28:58;;;;;;;19.55;6.53;;;-0.30;99.90;;;;;;5044358;28;20035;-69
2022/03/07 06:31:24;;;;;;;13.27;4.38;;;-0.40;99.90;;;;;;5015732;28;20532;-69
2022/03/07 06:33:50;;;;;;;30.10;5.13;;;-0.40;99.90;;;;;;5039637;28;20496;-69
2022/03/07 06:36:15;;;;;;;10.73;4.15;;;-0.50;99.90;;;;;;5037427;28;20085;-69
2022/03/07 06:38:41;;;;;;;14.85;5.35;;;-0.40;99.90;;;;;;5042641;28;20026;-68
2022/03/07 06:41:07;;;;;;;33.50;6.32;;;-0.40;99.90;;;;;;5038823;28;20041;-69
2022/03/07 06:43:34;;;;;;;13.00;4.43;;;-0.40;99.90;;;;;;5033692;28;20045;-70
2022/03/07 06:46:01;;;;;;;16.67;6.10;;;-0.40;99.90;;;;;;5045285;28;20018;-72
2022/03/07 06:48:27;;;;;;;30.30;7.75;;;-0.30;99.90;;;;;;5039625;28;20084;-72
2022/03/07 06:50:56;;;;;;;32.47;9.18;;;-0.30;99.90;;;;;;5040726;28;20096;-70
2022/03/07 06:53:22;;;;;;;12.70;5.45;;;-0.30;99.90;;;;;;5036832;28;20800;-70
2022/03/07 06:55:48;;;;;;;13.65;5.45;;;-0.30;99.90;;;;;;5026195;28;20049;-69
2022/03/07 06:58:13;;;;;;;27.83;5.50;;;-0.30;99.90;;;;;;5026334;28;20026;-69
2022/03/07 07:00:39;;;;;;;11.32;5.07;;;-0.30;99.90;;;;;;5032780;28;20037;-68
2022/03/07 07:03:05;;;;;;;14.77;6.57;;;-0.40;99.90;;;;;;5043457;28;20083;-69
2022/03/07 07:05:32;;;;;;;15.40;5.00;;;-0.40;99.90;;;;;;5038214;28;20083;-69
2022/03/07 07:07:59;;;;;;;21.85;5.45;;;-0.40;99.90;;;;;;5026910;28;20026;-69
2022/03/07 07:10:26;;;;;;;13.10;4.18;;;-0.40;99.90;;;;;;5044622;28;20018;-69
2022/03/07 07:12:52;;;;;;;16.50;4.43;;;-0.30;99.90;;;;;;5044924;28;20428;-70
2022/03/07 07:15:18;;;;;;;13.25;4.88;;;-0.30;99.90;;;;;;5025041;28;20021;-69
2022/03/07 07:17:45;;;;;;;14.35;4.70;;;-0.20;99.90;;;;;;5045815;28;20026;-68
2022/03/07 07:20:11;;;;;;;12.90;5.22;;;-0.20;99.90;;;;;;5044815;28;20021;-70
2022/03/07 07:22:38;;;;;;;8.73;4.00;;;-0.10;99.90;;;;;;5039060;28;20067;-69
2022/03/07 07:25:05;;;;;;;23.30;4.72;;;-0.10;99.90;;;;;;5044889;28;20053;-70
2022/03/07 07:27:33;;;;;;;9.90;4.70;;;0.00;99.90;;;;;;5044691;28;20029;-69
2022/03/07 07:30:00;;;;;;;49.22;7.43;;;0.00;99.90;;;;;;5045059;28;20059;-69
2022/03/07 07:32:28;;;;;;;41.90;5.90;;;0.00;99.90;;;;;;5044671;28;20389;-71
2022/03/07 07:34:54;;;;;;;31.67;6.15;;;0.10;99.90;;;;;;5045373;28;20044;-69
2022/03/07 07:37:20;;;;;;;16.80;4.45;;;0.10;99.90;;;;;;5038604;28;20496;-69
2022/03/07 07:39:47;;;;;;;32.33;6.03;;;0.20;99.90;;;;;;5044320;28;20033;-69
2022/03/07 07:42:14;;;;;;;23.90;4.43;;;0.20;99.90;;;;;;5044692;28;20091;-69
2022/03/07 07:44:40;;;;;;;16.73;5.55;;;0.20;99.90;;;;;;5044861;28;20025;-69
2022/03/07 07:47:07;;;;;;;18.33;4.60;;;0.40;99.90;;;;;;5043905;28;20104;-71
2022/03/07 07:49:34;;;;;;;48.92;5.88;;;0.40;99.90;;;;;;5042720;28;20029;-69
2022/03/07 07:51:59;;;;;;;30.88;6.55;;;0.40;99.90;;;;;;5044914;28;20073;-69
2022/03/07 07:54:26;;;;;;;13.23;5.20;;;0.40;99.90;;;;;;5044820;28;20046;-69
2022/03/07 07:56:52;;;;;;;56.97;7.50;;;0.40;99.90;;;;;;5043003;28;20043;-69
2022/03/07 07:59:18;;;;;;;31.20;7.25;;;0.40;99.90;;;;;;5043728;28;20052;-69
2022/03/07 08:01:47;;;;;;;19.20;6.00;;;0.50;99.90;;;;;;5043636;28;20116;-70
2022/03/07 08:04:12;;;;;;;10.57;5.90;;;0.60;99.90;;;;;;5044234;28;20037;-69
2022/03/07 08:06:39;;;;;;;23.17;3.88;;;0.70;99.90;;;;;;5043367;28;20030;-69
2022/03/07 08:09:05;;;;;;;30.42;7.18;;;0.80;99.90;;;;;;5039106;28;20061;-70
2022/03/07 08:11:31;;;;;;;6.22;3.70;;;0.90;99.90;;;;;;5041260;28;20033;-71
2022/03/07 08:13:58;;;;;;;49.72;4.93;;;0.90;99.90;;;;;;5043103;28;20044;-69
2022/03/07 08:16:25;;;;;;;14.35;5.03;;;1.00;99.90;;;;;;5044600;28;20044;-70
2022/03/07 08:18:51;;;;;;;44.90;5.45;;;1.10;99.90;;;;;;5044563;28;20021;-69
2022/03/07 08:21:20;;;;;;;35.35;5.43;;;1.10;99.90;;;;;;5044389;28;20036;-70
2022/03/07 08:23:45;;;;;;;29.75;4.38;;;1.20;99.90;;;;;;5043038;28;20044;-69
2022/03/07 08:26:11;;;;;;;48.85;5.78;;;1.20;99.90;;;;;;5044080;28;20072;-69
2022/03/07 08:28:36;;;;;;;17.77;5.28;;;1.30;99.90;;;;;;5043779;28;20028;-68
2022/03/07 08:31:02;;;;;;;17.80;6.70;;;1.40;99.90;;;;;;5044058;28;20056;-70
2022/03/07 08:33:31;;;;;;;6.20;4.05;;;1.40;99.90;;;;;;5043923;28;20427;-69
2022/03/07 08:35:59;;;;;;;9.10;4.43;;;1.50;99.90;;;;;;5044388;28;20048;-69
2022/03/07 08:38:27;;;;;;;33.28;6.35;;;1.60;99.90;;;;;;5044212;28;20025;-70
2022/03/07 08:40:57;;;;;;;16.92;4.50;;;1.70;99.90;;;;;;5043625;28;20025;-68
2022/03/07 08:43:24;;;;;;;17.35;5.53;;;1.70;99.90;;;;;;5044298;28;20132;-69
2022/03/07 08:45:51;;;;;;;10.52;4.25;;;1.80;99.90;;;;;;5057895;28;20025;-69
2022/03/07 08:48:17;;;;;;;9.40;3.80;;;2.00;99.90;;;;;;5042923;28;20039;-69
2022/03/07 08:50:46;;;;;;;12.82;4.75;;;2.10;99.90;;;;;;5043315;28;20081;-68
2022/03/07 08:53:12;;;;;;;11.82;3.88;;;2.20;99.90;;;;;;5040452;28;20053;-69
2022/03/07 08:55:37;;;;;;;10.77;5.70;;;2.30;99.90;;;;;;5041140;28;20114;-68
2022/03/07 08:58:03;;;;;;;7.63;3.58;;;2.50;99.90;;;;;;5036413;28;20025;-70
2022/03/07 09:00:29;;;;;;;8.95;4.70;;;2.60;99.90;;;;;;5043287;28;20025;-70
2022/03/07 09:02:54;;;;;;;12.45;3.53;;;2.80;99.90;;;;;;5041416;28;20037;-70
2022/03/07 09:05:20;;;;;;;15.50;3.83;;;2.90;99.90;;;;;;5042578;28;20033;-69
2022/03/07 09:07:45;;;;;;;23.83;4.55;;;3.00;99.90;;;;;;5040844;28;20075;-70
2022/03/07 09:10:11;;;;;;;8.13;3.83;;;3.10;99.90;;;;;;5037443;28;20501;-70
2022/03/07 09:12:37;;;;;;;12.77;4.78;;;3.20;99.90;;;;;;5035229;28;20029;-70
2022/03/07 09:15:06;;;;;;;50.75;4.15;;;3.20;99.90;;;;;;5042157;28;20061;-70
2022/03/07 09:17:33;;;;;;;11.98;4.43;;;3.20;99.90;;;;;;5043613;28;20026;-72
2022/03/07 09:19:59;;;;;;;7.13;3.47;;;3.30;99.90;;;;;;5047269;28;20032;-70
2022/03/07 09:22:26;;;;;;;8.20;3.85;;;3.40;99.90;;;;;;5047198;28;20085;-72
2022/03/07 09:24:53;;;;;;;18.83;4.35;;;3.60;99.90;;;;;;5047432;28;20025;-71
2022/03/07 09:27:19;;;;;;;36.03;4.95;;;3.80;99.90;;;;;;5046027;28;20092;-71
2022/03/07 09:29:44;;;;;;;18.73;4.45;;;3.90;99.90;;;;;;5047128;28;20029;-71
2022/03/07 09:32:11;;;;;;;26.05;4.55;;;4.00;99.90;;;;;;5028943;28;20029;-70
2022/03/07 09:34:37;;;;;;;9.90;2.95;;;4.00;99.90;;;;;;5029141;28;20021;-70
2022/03/07 09:37:07;;;;;;;18.35;3.85;;;4.10;99.90;;;;;;5046622;28;20089;-72
2022/03/07 09:39:34;;;;;;;8.35;3.53;;;4.10;99.90;;;;;;5045634;28;20017;-71
2022/03/07 09:42:03;;;;;;;8.07;3.70;;;4.20;99.90;;;;;;5041502;28;20040;-73
2022/03/07 09:44:29;;;;;;;18.00;3.85;;;4.40;99.90;;;;;;5027470;28;20042;-72
2022/03/07 09:46:57;;;;;;;13.32;3.63;;;4.80;99.90;;;;;;5029694;28;20076;-72
2022/03/07 09:49:24;;;;;;;8.85;3.90;;;4.80;99.90;;;;;;5033046;28;20099;-71
2022/03/07 09:51:52;;;;;;;6.25;3.42;;;4.70;99.90;;;;;;5046691;28;20465;-71
2022/03/07 09:54:20;;;;;;;9.88;3.90;;;4.80;99.90;;;;;;5046616;28;20156;-71
2022/03/07 09:56:45;;;;;;;7.78;3.72;;;5.10;99.90;;;;;;5028880;28;20030;-72
2022/03/07 09:59:11;;;;;;;6.13;3.22;;;5.30;99.90;;;;;;5046937;28;20029;-70
2022/03/07 10:01:37;;;;;;;7.53;3.53;;;5.40;99.90;;;;;;5028691;28;20029;-71
2022/03/07 10:04:13;;;;;;;8.07;4.03;;;5.50;99.90;;;;;;5046002;28;20050;-71
2022/03/07 10:06:50;;;;;;;11.57;4.13;;;5.70;99.90;;;;;;5037381;28;20049;-72
2022/03/07 10:09:25;;;;;;;8.35;3.20;;;5.80;99.90;;;;;;5018354;28;20045;-71
2022/03/07 10:11:53;;;;;;;10.70;4.63;;;6.00;99.90;;;;;;5036032;28;20033;-73
2022/03/07 10:14:31;;;;;;;9.55;4.07;;;6.30;99.90;;;;;;5046036;28;20025;-71
2022/03/07 10:17:00;;;;;;;10.38;4.22;;;6.50;99.90;;;;;;5046091;28;20022;-70
2022/03/07 10:19:26;;;;;;;7.25;3.60;;;6.70;99.90;;;;;;5031162;28;20047;-71
2022/03/07 10:21:53;;;;;;;8.85;4.03;;;7.00;99.90;;;;;;5034659;28;20509;-71
2022/03/07 10:24:31;;;;;;;7.75;3.30;;;7.10;99.90;;;;;;5043457;28;20045;-71
2022/03/07 10:26:59;;;;;;;7.43;3.40;;;7.30;99.90;;;;;;5045147;28;20029;-71
2022/03/07 10:29:25;;;;;;;12.43;3.88;;;7.60;99.90;;;;;;5045741;28;20059;-71
2022/03/07 10:31:51;;;;;;;10.77;3.45;;;7.90;99.90;;;;;;5041047;28;20132;-72
2022/03/07 10:34:16;;;;;;;7.45;3.65;;;8.00;99.90;;;;;;5044896;28;20033;-72
2022/03/07 10:36:46;;;;;;;6.30;3.58;;;8.10;99.90;;;;;;5025022;28;20034;-72
2022/03/07 10:39:15;;;;;;;7.43;3.72;;;8.20;99.90;;;;;;5025975;28;20133;-72
2022/03/07 10:41:43;;;;;;;7.13;3.80;;;8.30;99.90;;;;;;5044981;28;20026;-71
2022/03/07 10:44:29;;;;;;;5.53;3.17;;;8.50;99.90;;;;;;5059888;28;20037;-72
2022/03/07 10:47:16;;;;;;;7.30;3.63;;;8.50;99.90;;;;;;5045240;28;20048;-72
2022/03/07 10:49:56;;;;;;;6.88;3.40;;;8.80;99.90;;;;;;5043004;28;20098;-71
2022/03/07 10:52:24;;;;;;;6.53;3.47;;;9.00;99.90;;;;;;5045661;28;20114;-71
2022/03/07 10:54:51;;;;;;;10.55;4.28;;;9.20;99.90;;;;;;5030986;28;20088;-71
2022/03/07 10:57:21;;;;;;;5.75;3.20;;;9.40;99.90;;;;;;5043025;28;20025;-71
2022/03/07 10:59:47;;;;;;;19.85;3.58;;;9.50;99.90;;;;;;5026621;28;20061;-72
2022/03/07 11:02:16;;;;;;;6.47;3.05;;;9.70;99.90;;;;;;5027122;28;20398;-72
2022/03/07 11:04:48;;;;;;;6.05;3.22;;;10.00;99.90;;;;;;5044932;28;20049;-72
2022/03/07 11:07:14;;;;;;;5.85;2.80;;;10.30;99.90;;;;;;5043609;28;20029;-71
2022/03/07 11:09:41;;;;;;;4.75;3.00;;;10.60;99.90;;;;;;5038476;28;20591;-73
2022/03/07 11:12:12;;;;;;;5.55;3.35;;;10.80;99.90;;;;;;5043985;28;20091;-72
2022/03/07 11:14:40;;;;;;;8.23;2.60;;;10.90;99.90;;;;;;5026652;28;20569;-73
2022/03/07 11:17:17;;;;;;;7.28;3.25;;;10.90;99.90;;;;;;5044200;28;20053;-74
2022/03/07 11:19:45;;;;;;;4.15;2.40;;;11.00;99.90;;;;;;5044411;28;20052;-73
2022/03/07 11:22:11;;;;;;;5.68;2.80;;;11.00;99.90;;;;;;5044143;28;20036;-72
2022/03/07 11:24:38;;;;;;;6.85;3.15;;;11.10;99.90;;;;;;5043618;28;20033;-72
2022/03/07 11:27:04;;;;;;;6.18;2.95;;;11.40;99.90;;;;;;5044243;28;20039;-73
2022/03/07 11:29:39;;;;;;;5.15;2.70;;;11.60;99.90;;;;;;5044274;28;20383;-72
2022/03/07 11:32:08;;;;;;;5.72;3.03;;;11.70;99.90;;;;;;5025265;28;20491;-72
2022/03/07 11:34:36;;;;;;;8.02;2.70;;;11.90;99.90;;;;;;5040906;28;20025;-72
2022/03/07 11:37:03;;;;;;;5.53;2.80;;;12.00;99.90;;;;;;5035877;28;20239;-72
2022/03/07 11:39:34;;;;;;;8.85;3.50;;;12.20;99.90;;;;;;5020128;28;20026;-73
2022/03/07 11:42:15;;;;;;;3.88;2.38;;;12.40;99.90;;;;;;5026300;28;20126;-74
2022/03/07 11:44:45;;;;;;;7.35;3.45;;;12.70;99.90;;;;;;5023736;28;20160;-73
2022/03/07 11:47:16;;;;;;;7.90;2.92;;;13.00;99.90;;;;;;5025582;28;20045;-72
2022/03/07 11:49:42;;;;;;;4.13;1.98;;;13.30;99.90;;;;;;5039078;28;20081;-71
2022/03/07 11:52:10;;;;;;;5.03;2.30;;;13.60;99.90;;;;;;5043170;28;20033;-72
2022/03/07 11:54:56;;;;;;;2.65;1.20;;;13.90;99.90;;;;;;5042661;28;20025;-73
2022/03/07 11:57:33;;;;;;;1.98;0.73;;;14.10;99.90;;;;;;5042866;28;20477;-73
2022/03/07 12:00:09;;;;;;;1.40;0.82;;;14.50;99.90;;;;;;5043287;28;20029;-72
2022/03/07 12:02:42;;;;;;;1.40;0.70;;;14.50;99.90;;;;;;5043462;28;20034;-72
2022/03/07 12:05:23;;;;;;;1.65;0.90;;;14.60;99.90;;;;;;5024661;28;20034;-73
2022/03/07 12:07:49;;;;;;;5.45;1.17;;;14.80;99.90;;;;;;5016881;28;20026;-72
2022/03/07 12:10:15;;;;;;;1.35;0.80;;;14.90;99.90;;;;;;5026930;28;20498;-73
2022/03/07 12:12:41;;;;;;;0.93;0.60;;;15.10;99.90;;;;;;5014157;28;20055;-72
2022/03/07 12:15:08;;;;;;;2.17;0.98;;;15.30;99.90;;;;;;5042764;28;20389;-73
2022/03/07 12:17:34;;;;;;;1.70;1.17;;;15.20;99.90;;;;;;5037301;28;20014;-73
2022/03/07 12:20:00;;;;;;;2.50;1.17;;;15.10;99.90;;;;;;5014412;28;20036;-74
2022/03/07 12:22:30;;;;;;;1.73;1.10;;;15.00;99.90;;;;;;5027134;28;20384;-73
2022/03/07 12:25:07;;;;;;;5.55;1.20;;;15.00;99.90;;;;;;5016915;28;20057;-74
2022/03/07 12:27:37;;;;;;;7.00;1.77;;;15.00;99.90;;;;;;5035580;28;20029;-74
2022/03/07 12:30:05;;;;;;;1.95;1.20;;;15.00;99.90;;;;;;5023505;28;20085;-75
2022/03/07 12:32:34;;;;;;;2.05;1.10;;;15.10;99.90;;;;;;5026550;28;20388;-72
2022/03/07 12:34:59;;;;;;;2.55;1.35;;;15.40;99.90;;;;;;5021711;28;20038;-72
2022/03/07 12:37:28;;;;;;;2.13;1.10;;;15.60;99.90;;;;;;5023136;28;20144;-73
2022/03/07 12:40:00;;;;;;;2.65;1.23;;;15.70;99.90;;;;;;5036051;28;20049;-73
2022/03/07 12:42:31;;;;;;;2.83;1.40;;;16.00;99.90;;;;;;5042715;28;20036;-72
2022/03/07 12:45:04;;;;;;;2.47;1.15;;;15.90;99.90;;;;;;5023564;28;20313;-73
2022/03/07 12:47:32;;;;;;;1.50;0.88;;;16.00;99.90;;;;;;5043030;28;20033;-73
2022/03/07 12:49:59;;;;;;;3.17;1.42;;;16.00;99.90;;;;;;5041308;28;20135;-73